createdAt,value
2019-04-25T00:00:56.029Z,96486.98
2019-04-25T00:03:28.020Z,96477.06
2019-04-25T00:05:57.840Z,96475.41
2019-04-25T00:08:27.627Z,96471.49
2019-04-25T00:10:57.294Z,96478.00
2019-04-25T00:13:27.304Z,96474.48
2019-04-25T00:15:56.982Z,96470.86
2019-04-25T00:18:26.720Z,96470.86
2019-04-25T00:21:01.421Z,96464.77
2019-04-25T00:23:31.755Z,96455.44
2019-04-25T00:26:21.135Z,96444.69
2019-04-25T00:28:52.292Z,96443.96
2019-04-25T00:31:22.140Z,96437.95
2019-04-25T00:33:53.318Z,96429.85
2019-04-25T00:36:23.229Z,96441.93
2019-04-25T00:38:53.317Z,96444.11
2019-04-25T00:41:23.106Z,96444.11
2019-04-25T00:43:53.139Z,96440.83
2019-04-25T00:46:22.743Z,96431.24
2019-04-25T00:48:52.717Z,96431.24
2019-04-25T00:51:22.319Z,96435.48
2019-04-25T00:53:54.715Z,96435.48
2019-04-25T00:56:23.634Z,96436.09
2019-04-25T00:59:11.801Z,96436.09
2019-04-25T01:02:07.647Z,96437.03
2019-04-25T01:04:37.895Z,96436.29
2019-04-25T01:07:07.660Z,96436.29
2019-04-25T01:09:37.676Z,96434.72
2019-04-25T01:12:07.417Z,96439.37
2019-04-25T01:14:37.092Z,96449.26
2019-04-25T01:17:06.639Z,96454.67
2019-04-25T01:19:36.478Z,96466.57
2019-04-25T01:22:07.743Z,96471.95
2019-04-25T01:24:37.406Z,96480.89
2019-04-25T01:27:10.055Z,96487.17
2019-04-25T01:29:39.852Z,96495.96
2019-04-25T01:32:11.208Z,96495.96
2019-04-25T01:34:48.477Z,96500.14
2019-04-25T01:37:34.055Z,96499.02
2019-04-25T01:40:33.414Z,96503.52
2019-04-25T01:43:19.020Z,96508.24
2019-04-25T01:45:49.645Z,96519.23
2019-04-25T01:48:19.456Z,96531.52
2019-04-25T01:50:49.635Z,96531.17
2019-04-25T01:53:20.045Z,96531.17
2019-04-25T01:55:55.870Z,96531.36
2019-04-25T01:58:21.788Z,96530.98
2019-04-25T02:00:54.581Z,96530.98
2019-04-25T02:03:27.291Z,96530.42
2019-04-25T02:05:57.619Z,96530.48
2019-04-25T02:08:27.174Z,96530.48
2019-04-25T02:11:15.200Z,96531.96
2019-04-25T02:13:44.887Z,96534.28
2019-04-25T02:16:14.833Z,96534.28
2019-04-25T02:18:44.708Z,96522.16
2019-04-25T02:21:14.259Z,96524.66
2019-04-25T02:23:44.335Z,96524.66
2019-04-25T02:26:17.436Z,96524.34
2019-04-25T02:28:45.888Z,96524.34
2019-04-25T02:31:18.429Z,96531.83
2019-04-25T02:33:47.271Z,96525.19
2019-04-25T02:36:17.073Z,96536.78
2019-04-25T02:38:47.070Z,96529.97
2019-04-25T02:41:16.632Z,96529.97
2019-04-25T02:43:47.048Z,96542.02
2019-04-25T02:46:45.157Z,96541.16
2019-04-25T02:49:35.409Z,96541.16
2019-04-25T02:52:20.824Z,96544.06
2019-04-25T02:54:50.755Z,96544.06
2019-04-25T02:57:20.401Z,96550.11
2019-04-25T02:59:50.198Z,96545.64
2019-04-25T03:02:20.006Z,96547.22
2019-04-25T03:04:50.228Z,96550.11
2019-04-25T03:07:19.861Z,96543.08
2019-04-25T03:09:49.634Z,96549.99
2019-04-25T03:12:32.496Z,96549.99
2019-04-25T03:14:50.757Z,96543.98
2019-04-25T03:17:20.912Z,96543.98
2019-04-25T03:20:14.702Z,96529.23
2019-04-25T03:22:44.494Z,96529.23
2019-04-25T03:25:17.447Z,96529.44
2019-04-25T03:27:46.282Z,96531.58
2019-04-25T03:30:17.981Z,96532.56
2019-04-25T03:32:51.346Z,96540.09
2019-04-25T03:35:18.950Z,96538.64
2019-04-25T03:37:48.657Z,96538.64
2019-04-25T03:40:18.681Z,96544.25
2019-04-25T03:42:48.362Z,96544.25
2019-04-25T03:45:18.097Z,96552.34
2019-04-25T03:47:48.172Z,96549.36
2019-04-25T03:50:18.068Z,96551.53
2019-04-25T03:52:47.765Z,96555.15
2019-04-25T03:55:17.383Z,96555.15
2019-04-25T03:57:47.197Z,96558.72
2019-04-25T04:00:16.822Z,96558.72
2019-04-25T04:02:46.599Z,96566.43
2019-04-25T04:05:16.685Z,96566.06
2019-04-25T04:07:46.206Z,96566.06
2019-04-25T04:10:15.875Z,96581.28
2019-04-25T04:12:45.418Z,96572.78
2019-04-25T04:15:15.999Z,96563.06
2019-04-25T04:18:01.718Z,96563.06
2019-04-25T04:20:59.823Z,96570.81
2019-04-25T04:23:44.050Z,96562.59
2019-04-25T04:26:14.531Z,96565.40
2019-04-25T04:28:44.235Z,96568.77
2019-04-25T04:31:15.417Z,96571.80
2019-04-25T04:33:45.376Z,96559.78
2019-04-25T04:36:17.416Z,96557.67
2019-04-25T04:38:46.420Z,96550.20
2019-04-25T04:41:16.457Z,96549.17
2019-04-25T04:43:46.061Z,96557.66
2019-04-25T04:46:18.230Z,96573.18
2019-04-25T04:48:47.855Z,96573.18
2019-04-25T04:51:17.518Z,96572.85
2019-04-25T04:53:47.312Z,96574.44
2019-04-25T04:56:17.591Z,96574.44
2019-04-25T04:58:47.271Z,96584.25
2019-04-25T05:01:19.061Z,96573.76
2019-04-25T05:04:19.708Z,96573.76
2019-04-25T05:07:15.317Z,96581.28
2019-04-25T05:09:45.974Z,96589.58
2019-04-25T05:12:16.215Z,96593.06
2019-04-25T05:14:46.109Z,96589.89
2019-04-25T05:17:16.356Z,96591.64
2019-04-25T05:19:46.246Z,96591.64
2019-04-25T05:22:16.930Z,96592.48
2019-04-25T05:24:46.486Z,96593.87
2019-04-25T05:27:30.624Z,96592.63
2019-04-25T05:29:48.320Z,96592.63
2019-04-25T05:32:18.172Z,96577.95
2019-04-25T05:34:49.393Z,96588.58
2019-04-25T05:37:20.087Z,96580.08
2019-04-25T05:39:50.076Z,96579.11
2019-04-25T05:42:42.039Z,96576.70
2019-04-25T05:45:13.052Z,96566.83
2019-04-25T05:47:44.266Z,96580.13
2019-04-25T05:50:13.987Z,96571.52
2019-04-25T05:52:43.927Z,96576.22
2019-04-25T05:55:17.555Z,96576.22
2019-04-25T05:57:49.993Z,96580.78
2019-04-25T06:00:18.957Z,96590.11
2019-04-25T06:02:49.171Z,96578.30
2019-04-25T06:05:19.076Z,96584.49
2019-04-25T06:07:49.024Z,96592.88
2019-04-25T06:10:31.053Z,96589.95
2019-04-25T06:13:38.649Z,96589.95
2019-04-25T06:16:17.788Z,96589.11
2019-04-25T06:19:11.308Z,96592.44
2019-04-25T06:21:31.783Z,96592.44
2019-04-25T06:24:25.739Z,96602.08
2019-04-25T06:27:03.756Z,96598.84
2019-04-25T06:29:34.853Z,96598.84
2019-04-25T06:32:08.357Z,96602.81
2019-04-25T06:34:36.546Z,96599.73
2019-04-25T06:37:06.459Z,96606.55
2019-04-25T06:39:36.977Z,96606.55
2019-04-25T06:42:06.867Z,96590.30
2019-04-25T06:44:45.206Z,96588.82
2019-04-25T06:47:40.391Z,96603.80
2019-04-25T06:50:10.091Z,96595.41
2019-04-25T06:52:39.999Z,96589.90
2019-04-25T06:55:10.002Z,96585.70
2019-04-25T06:57:39.869Z,96589.89
2019-04-25T07:00:10.473Z,96589.89
2019-04-25T07:02:41.028Z,96607.06
2019-04-25T07:05:10.902Z,96607.06
2019-04-25T07:07:41.131Z,96594.23
2019-04-25T07:10:10.826Z,96611.20
2019-04-25T07:12:40.819Z,96624.30
2019-04-25T07:15:10.943Z,96612.55
2019-04-25T07:17:41.148Z,96617.11
2019-04-25T07:20:13.808Z,96623.48
2019-04-25T07:22:44.140Z,96623.48
2019-04-25T07:25:13.852Z,96625.31
2019-04-25T07:28:23.355Z,96620.30
2019-04-25T07:30:56.848Z,96634.85
2019-04-25T07:33:53.239Z,96634.85
2019-04-25T07:36:23.309Z,96626.64
2019-04-25T07:39:05.172Z,96626.64
2019-04-25T07:41:25.917Z,96637.40
2019-04-25T07:43:55.563Z,96623.59
2019-04-25T07:46:26.194Z,96623.59
2019-04-25T07:48:56.036Z,96616.77
2019-04-25T07:51:26.716Z,96616.77
2019-04-25T07:53:56.988Z,96618.20
2019-04-25T07:56:27.707Z,96616.80
2019-04-25T07:58:57.390Z,96613.48
2019-04-25T08:01:28.148Z,96633.50
2019-04-25T08:03:58.601Z,96625.05
2019-04-25T08:06:29.361Z,96625.05
2019-04-25T08:09:01.396Z,96630.27
2019-04-25T08:11:31.920Z,96630.39
2019-04-25T08:14:22.161Z,96631.06
2019-04-25T08:16:56.354Z,96631.06
2019-04-25T08:19:26.387Z,96633.67
2019-04-25T08:21:56.774Z,96637.28
2019-04-25T08:24:26.662Z,96641.66
2019-04-25T08:26:56.774Z,96643.68
2019-04-25T08:29:27.883Z,96649.07
2019-04-25T08:31:57.651Z,96649.07
2019-04-25T08:34:27.261Z,96655.63
2019-04-25T08:36:58.654Z,96655.63
2019-04-25T08:39:28.540Z,96653.61
2019-04-25T08:41:58.376Z,96665.23
2019-04-25T08:44:28.467Z,96665.23
2019-04-25T08:46:58.232Z,96662.20
2019-04-25T08:49:36.313Z,96670.40
2019-04-25T08:52:06.129Z,96663.45
2019-04-25T08:54:47.617Z,96667.44
2019-04-25T08:57:25.626Z,96670.01
2019-04-25T09:00:11.263Z,96661.58
2019-04-25T09:02:50.023Z,96661.58
2019-04-25T09:05:26.253Z,96660.18
2019-04-25T09:08:00.866Z,96660.18
2019-04-25T09:10:30.901Z,96656.77
2019-04-25T09:13:03.186Z,96655.69
2019-04-25T09:15:35.668Z,96655.69
2019-04-25T09:18:06.055Z,96674.39
2019-04-25T09:20:40.289Z,96656.34
2019-04-25T09:23:08.754Z,96658.42
2019-04-25T09:25:38.820Z,96658.42
2019-04-25T09:28:08.840Z,96655.30
2019-04-25T09:30:38.523Z,96651.80
2019-04-25T09:33:08.278Z,96649.95
2019-04-25T09:35:41.649Z,96645.64
2019-04-25T09:38:13.293Z,96651.06
2019-04-25T09:40:44.445Z,96651.06
2019-04-25T09:43:18.421Z,96649.31
2019-04-25T09:46:24.220Z,96654.33
2019-04-25T09:49:17.946Z,96653.37
2019-04-25T09:52:00.141Z,96657.22
2019-04-25T09:54:38.285Z,96651.75
2019-04-25T09:57:28.158Z,96647.95
2019-04-25T10:00:03.638Z,96658.69
2019-04-25T10:02:30.722Z,96658.69
2019-04-25T10:05:04.041Z,96653.98
2019-04-25T10:07:33.530Z,96660.48
2019-04-25T10:10:03.819Z,96660.95
2019-04-25T10:12:34.223Z,96653.50
2019-04-25T10:15:15.849Z,96653.50
2019-04-25T10:17:46.557Z,96655.70
2019-04-25T10:20:25.367Z,96655.70
2019-04-25T10:22:55.221Z,96655.20
2019-04-25T10:25:24.892Z,96656.59
2019-04-25T10:27:54.739Z,96658.73
2019-04-25T10:30:26.028Z,96651.92
2019-04-25T10:32:58.687Z,96651.92
2019-04-25T10:35:31.016Z,96650.02
2019-04-25T10:38:00.580Z,96650.02
2019-04-25T10:40:30.532Z,96650.48
2019-04-25T10:43:00.070Z,96648.26
2019-04-25T10:45:34.119Z,96635.97
2019-04-25T10:48:04.253Z,96638.32
2019-04-25T10:50:34.276Z,96637.54
2019-04-25T10:53:05.344Z,96623.03
2019-04-25T10:55:43.557Z,96623.03
2019-04-25T10:58:14.191Z,96614.94
2019-04-25T11:00:47.450Z,96614.94
2019-04-25T11:03:48.440Z,96609.52
2019-04-25T11:06:23.298Z,96611.02
2019-04-25T11:08:55.489Z,96611.02
2019-04-25T11:11:24.747Z,96602.56
2019-04-25T11:13:55.659Z,96605.72
2019-04-25T11:16:25.549Z,96605.72
2019-04-25T11:18:55.293Z,96611.64
2019-04-25T11:21:27.067Z,96606.80
2019-04-25T11:23:56.725Z,96606.80
2019-04-25T11:26:28.088Z,96605.76
2019-04-25T11:28:58.606Z,96616.46
2019-04-25T11:31:37.577Z,96617.18
2019-04-25T11:34:07.657Z,96609.16
2019-04-25T11:36:37.183Z,96615.22
2019-04-25T11:39:32.902Z,96616.89
2019-04-25T11:42:04.550Z,96627.34
2019-04-25T11:44:40.233Z,96627.34
2019-04-25T11:47:11.164Z,96617.64
2019-04-25T11:49:42.093Z,96627.25
2019-04-25T11:52:26.531Z,96617.16
2019-04-25T11:54:46.750Z,96617.16
2019-04-25T11:57:16.661Z,96609.20
2019-04-25T11:59:49.230Z,96594.25
2019-04-25T12:02:20.618Z,96594.81
2019-04-25T12:04:51.052Z,96586.09
2019-04-25T12:07:21.334Z,96586.82
2019-04-25T12:09:52.186Z,96578.73
2019-04-25T12:12:23.598Z,96578.73
2019-04-25T12:14:54.362Z,96563.41
2019-04-25T12:17:25.082Z,96569.50
2019-04-25T12:19:55.953Z,96569.50
2019-04-25T12:22:30.219Z,96555.07
2019-04-25T12:24:59.847Z,96555.07
2019-04-25T12:27:30.354Z,96547.73
2019-04-25T12:30:00.230Z,96556.43
2019-04-25T12:32:29.711Z,96558.44
2019-04-25T12:34:59.253Z,96560.69
2019-04-25T12:37:35.089Z,96562.28
2019-04-25T12:40:06.756Z,96561.58
2019-04-25T12:42:36.876Z,96561.58
2019-04-25T12:45:24.143Z,96558.42
2019-04-25T12:47:59.182Z,96558.42
2019-04-25T12:50:28.494Z,96569.78
2019-04-25T12:53:01.275Z,96568.00
2019-04-25T12:55:31.144Z,96583.23
2019-04-25T12:58:00.942Z,96583.23
2019-04-25T13:00:31.023Z,96576.19
2019-04-25T13:03:01.566Z,96571.16
2019-04-25T13:05:31.283Z,96571.16
2019-04-25T13:08:01.445Z,96574.12
2019-04-25T13:10:31.240Z,96566.46
2019-04-25T13:13:01.091Z,96571.70
2019-04-25T13:15:34.210Z,96563.74
2019-04-25T13:18:04.136Z,96571.34
2019-04-25T13:20:34.076Z,96571.34
2019-04-25T13:23:05.898Z,96563.17
2019-04-25T13:25:35.807Z,96567.04
2019-04-25T13:28:24.643Z,96560.62
2019-04-25T13:31:16.549Z,96559.80
2019-04-25T13:34:05.911Z,96556.23
2019-04-25T13:36:44.314Z,96556.23
2019-04-25T13:39:19.878Z,96550.89
2019-04-25T13:41:49.742Z,96540.20
2019-04-25T13:44:19.490Z,96532.84
2019-04-25T13:46:49.034Z,96532.84
2019-04-25T13:49:19.471Z,96539.58
2019-04-25T13:51:49.895Z,96536.53
2019-04-25T13:54:19.369Z,96532.36
2019-04-25T13:56:49.203Z,96530.03
2019-04-25T13:59:23.518Z,96518.68
2019-04-25T14:01:57.577Z,96518.68
2019-04-25T14:04:28.056Z,96507.39
2019-04-25T14:06:57.668Z,96502.83
2019-04-25T14:09:34.573Z,96493.93
2019-04-25T14:12:05.285Z,96493.93
2019-04-25T14:14:37.469Z,96481.73
2019-04-25T14:17:15.399Z,96484.88
2019-04-25T14:20:07.150Z,96484.88
2019-04-25T14:22:36.987Z,96474.19
2019-04-25T14:25:07.194Z,96474.19
2019-04-25T14:27:37.061Z,96481.70
2019-04-25T14:30:13.485Z,96476.84
2019-04-25T14:32:46.025Z,96475.10
2019-04-25T14:35:15.584Z,96475.10
2019-04-25T14:37:46.227Z,96471.91
2019-04-25T14:40:16.205Z,96479.16
2019-04-25T14:42:46.018Z,96482.10
2019-04-25T14:45:17.976Z,96482.10
2019-04-25T14:47:49.318Z,96485.31
2019-04-25T14:50:18.745Z,96474.98
2019-04-25T14:52:48.708Z,96478.64
2019-04-25T14:55:36.135Z,96487.70
2019-04-25T14:58:09.927Z,96487.70
2019-04-25T15:00:42.437Z,96483.83
2019-04-25T15:03:12.105Z,96485.44
2019-04-25T15:05:43.433Z,96485.19
2019-04-25T15:08:13.658Z,96484.89
2019-04-25T15:10:43.780Z,96484.78
2019-04-25T15:13:13.873Z,96485.00
2019-04-25T15:15:44.183Z,96485.00
2019-04-25T15:18:14.901Z,96492.94
2019-04-25T15:20:44.649Z,96491.06
2019-04-25T15:23:14.575Z,96493.03
2019-04-25T15:25:44.442Z,96501.66
2019-04-25T15:28:14.147Z,96497.41
2019-04-25T15:30:46.022Z,96506.02
2019-04-25T15:33:15.456Z,96506.02
2019-04-25T15:35:53.655Z,96489.77
2019-04-25T15:38:39.836Z,96489.77
2019-04-25T15:41:20.311Z,96479.91
2019-04-25T15:44:08.993Z,96472.92
2019-04-25T15:46:40.425Z,96471.57
2019-04-25T15:49:16.669Z,96467.70
2019-04-25T15:51:48.487Z,96464.19
2019-04-25T15:56:46.707Z,96471.42
2019-04-25T15:59:16.203Z,96471.87
2019-04-25T16:01:49.223Z,96471.87
2019-04-25T16:04:18.677Z,96475.08
2019-04-25T16:06:48.118Z,96475.08
2019-04-25T16:14:15.920Z,96470.09
2019-04-25T16:16:45.887Z,96471.37
2019-04-25T16:19:15.706Z,96471.37
2019-04-25T16:21:45.839Z,96478.68
2019-04-25T16:24:15.757Z,96480.30
2019-04-25T16:26:45.431Z,96483.95
2019-04-25T16:29:15.558Z,96486.78
2019-04-25T16:31:45.466Z,96486.78
2019-04-25T16:34:15.486Z,96485.61
2019-04-25T16:36:45.377Z,96494.80
2019-04-25T16:39:19.136Z,96494.55
2019-04-25T16:41:49.807Z,96494.55
2019-04-25T16:44:21.568Z,96493.11
2019-04-25T16:46:54.555Z,96491.68
2019-04-25T16:49:29.827Z,96489.94
2019-04-25T16:51:59.663Z,96489.72
2019-04-25T16:54:30.414Z,96487.03
2019-04-25T16:57:00.295Z,96487.64
2019-04-25T16:59:30.069Z,96502.00
2019-04-25T17:02:00.559Z,96502.00
2019-04-25T17:04:31.114Z,96506.36
2019-04-25T17:07:01.044Z,96511.09
2019-04-25T17:09:30.965Z,96515.58
2019-04-25T17:12:05.562Z,96526.59
2019-04-25T17:14:42.907Z,96524.65
2019-04-25T17:17:40.489Z,96525.35
2019-04-25T17:20:18.174Z,96524.36
2019-04-25T17:22:48.014Z,96524.36
2019-04-25T17:25:17.827Z,96539.20
2019-04-25T17:27:47.375Z,96550.80
2019-04-25T17:30:18.323Z,96566.08
2019-04-25T17:33:01.894Z,96566.08
2019-04-25T17:35:53.158Z,96579.39
2019-04-25T17:38:45.812Z,96579.39
2019-04-25T17:41:15.743Z,96581.91
2019-04-25T17:43:45.472Z,96592.27
2019-04-25T17:46:19.904Z,96594.77
2019-04-25T17:48:49.366Z,96589.70
2019-04-25T17:51:22.760Z,96589.70
2019-04-25T17:53:52.287Z,96596.87
2019-04-25T17:56:22.218Z,96596.46
2019-04-25T17:58:52.216Z,96596.46
2019-04-25T18:01:24.368Z,96590.33
2019-04-25T18:03:54.769Z,96590.33
2019-04-25T18:06:29.161Z,96593.47
2019-04-25T18:09:01.327Z,96582.12
2019-04-25T18:11:32.044Z,96582.12
2019-04-25T18:14:02.579Z,96588.05
2019-04-25T18:16:38.181Z,96610.87
2019-04-25T18:19:18.278Z,96621.32
2019-04-25T18:21:48.293Z,96621.32
2019-04-25T18:24:36.686Z,96624.78
2019-04-25T18:27:25.619Z,96626.17
2019-04-25T18:29:56.591Z,96626.17
2019-04-25T18:32:31.169Z,96629.44
2019-04-25T18:35:08.879Z,96633.48
2019-04-25T18:37:52.373Z,96638.44
2019-04-25T18:40:29.756Z,96638.44
2019-04-25T18:43:30.396Z,96648.17
2019-04-25T18:46:05.204Z,96674.56
2019-04-25T18:48:34.859Z,96674.56
2019-04-25T18:51:04.643Z,96686.09
2019-04-25T18:54:02.737Z,96698.62
2019-04-25T18:57:00.535Z,96705.16
2019-04-25T18:59:49.502Z,96705.16
2019-04-25T19:02:44.211Z,96730.63
2019-04-25T19:05:26.224Z,96718.48
2019-04-25T19:07:57.484Z,96720.19
2019-04-25T19:10:27.670Z,96720.19
2019-04-25T19:12:57.360Z,96726.73
2019-04-25T19:15:29.458Z,96723.81
2019-04-25T19:18:01.383Z,96723.81
2019-04-25T19:20:34.429Z,96721.84
2019-04-25T19:23:04.610Z,96721.84
2019-04-25T19:25:34.934Z,96729.06
2019-04-25T19:28:06.253Z,96743.16
2019-04-25T19:30:35.820Z,96743.16
2019-04-25T19:33:11.656Z,96742.72
2019-04-25T19:35:43.587Z,96750.26
2019-04-25T19:38:13.282Z,96757.41
2019-04-25T19:40:53.857Z,96768.41
2019-04-25T19:43:30.934Z,96768.41
2019-04-25T19:46:01.076Z,96769.52
2019-04-25T19:48:33.129Z,96750.97
2019-04-25T19:51:02.776Z,96750.97
2019-04-25T19:53:33.745Z,96770.55
2019-04-25T19:56:03.531Z,96768.59
2019-04-25T19:58:33.366Z,96768.59
2019-04-25T20:01:04.635Z,96776.45
2019-04-25T20:04:12.088Z,96791.90
2019-04-25T20:07:09.702Z,96784.19
2019-04-25T20:09:57.356Z,96790.26
2019-04-25T20:12:31.245Z,96790.26
2019-04-25T20:15:01.959Z,96792.50
2019-04-25T20:17:31.681Z,96779.52
2019-04-25T20:20:01.574Z,96779.52
2019-04-25T20:22:31.750Z,96774.34
2019-04-25T20:25:02.151Z,96774.34
2019-04-25T20:27:32.259Z,96774.93
2019-04-25T20:30:03.276Z,96782.23
2019-04-25T20:32:36.138Z,96774.22
2019-04-25T20:35:09.649Z,96757.84
2019-04-25T20:37:39.635Z,96762.98
2019-04-25T20:40:11.277Z,96768.16
2019-04-25T20:42:44.381Z,96762.84
2019-04-25T20:45:16.382Z,96762.84
2019-04-25T20:47:47.979Z,96770.45
2019-04-25T20:50:22.255Z,96781.36
2019-04-25T20:52:53.039Z,96780.19
2019-04-25T20:55:22.742Z,96782.03
2019-04-25T20:57:53.243Z,96795.54
2019-04-25T21:00:43.656Z,96797.73
2019-04-25T21:03:14.096Z,96797.73
2019-04-25T21:05:45.067Z,96798.56
2019-04-25T21:08:15.001Z,96798.56
2019-04-25T21:10:44.999Z,96790.31
2019-04-25T21:13:19.318Z,96794.92
2019-04-25T21:15:56.230Z,96794.92
2019-04-25T21:18:51.791Z,96776.75
2019-04-25T21:23:48.833Z,96772.87
2019-04-25T21:26:21.747Z,96783.96
2019-04-25T21:28:52.239Z,96779.77
2019-04-25T21:31:52.575Z,96775.41
2019-04-25T21:34:40.456Z,96775.95
2019-04-25T21:37:12.500Z,96783.17
2019-04-25T21:40:13.902Z,96783.17
2019-04-25T21:43:09.389Z,96788.23
2019-04-25T21:45:39.680Z,96774.27
2019-04-25T21:48:10.028Z,96775.27
2019-04-25T21:50:40.372Z,96773.42
2019-04-25T21:53:10.828Z,96771.40
2019-04-25T21:55:40.895Z,96784.34
2019-04-25T21:58:11.033Z,96784.34
2019-04-25T22:01:00.162Z,96790.87
2019-04-25T22:03:32.434Z,96796.03
2019-04-25T22:06:19.389Z,96807.77
2019-04-25T22:08:50.150Z,96807.77
2019-04-25T22:11:20.024Z,96821.12
2019-04-25T22:13:50.530Z,96825.16
2019-04-25T22:16:20.832Z,96825.16
2019-04-25T22:18:51.016Z,96837.16
2019-04-25T22:21:20.945Z,96837.16
2019-04-25T22:24:03.080Z,96835.17
2019-04-25T22:26:22.686Z,96822.05
2019-04-25T22:28:52.654Z,96822.05
2019-04-25T22:31:27.853Z,96826.31
2019-04-25T22:34:15.767Z,96826.31
2019-04-25T22:36:46.351Z,96821.22
2019-04-25T22:39:16.063Z,96821.22
2019-04-25T22:41:50.092Z,96809.52
2019-04-25T22:44:19.421Z,96803.91
2019-04-25T22:46:49.622Z,96797.84
2019-04-25T22:49:19.365Z,96803.94
2019-04-25T22:51:49.386Z,96803.94
2019-04-25T22:54:19.386Z,96809.59
2019-04-25T22:56:49.651Z,96809.59
2019-04-25T22:59:19.606Z,96802.34
2019-04-25T23:02:11.721Z,96812.39
2019-04-25T23:05:05.390Z,96812.39
2019-04-25T23:07:27.147Z,96798.66
2019-04-25T23:09:57.287Z,96801.33
2019-04-25T23:12:27.341Z,96801.33
2019-04-25T23:14:57.718Z,96804.83
2019-04-25T23:17:27.516Z,96792.80
2019-04-25T23:19:57.639Z,96792.80
2019-04-25T23:22:27.757Z,96787.63
2019-04-25T23:25:04.548Z,96787.63
2019-04-25T23:27:56.254Z,96770.14
2019-04-25T23:30:32.065Z,96760.02
2019-04-25T23:33:01.863Z,96760.02
2019-04-25T23:35:34.314Z,96759.45
2019-04-25T23:38:05.621Z,96759.45
2019-04-25T23:40:35.366Z,96751.94
2019-04-25T23:43:06.157Z,96738.16
2019-04-25T23:45:35.979Z,96733.61
2019-04-25T23:48:06.043Z,96733.77
2019-04-25T23:50:36.740Z,96744.95
2019-04-25T23:53:06.522Z,96744.95
2019-04-25T23:55:38.015Z,96762.90
2019-04-25T23:58:08.812Z,96749.79
